Time;durP1;ratioP1;P1;durP2;ratioP2;P2;SDS_P1;SDS_P2;PMS_P1;PMS_P2;Temp;Humidity;BMP_temperature;BMP_pressure;BME280_temperature;BME280_humidity;BME280_pressure;Samples;Min_cycle;Max_cycle;Signal;HPM_P1;HPM_P2
2023/05/01 00:00:43;;;;;;;6.07;3.57;;;;;;;;;;5011569;28;20659;-62
2023/05/01 00:03:09;;;;;;;5.30;3.20;;;;;;;;;;5011427;28;20212;-63
2023/05/01 00:05:36;;;;;;;4.60;3.43;;;;;;;;;;5011530;28;20727;-62
2023/05/01 00:08:02;;;;;;;5.63;3.07;;;;;;;;;;5011586;28;20244;-62
2023/05/01 00:10:30;;;;;;;5.10;3.23;;;;;;;;;;5011423;28;20201;-62
2023/05/01 00:12:56;;;;;;;8.77;3.80;;;;;;;;;;5011612;28;20217;-62
2023/05/01 00:15:22;;;;;;;4.90;2.90;;;;;;;;;;5011579;28;20198;-62
2023/05/01 00:17:48;;;;;;;5.63;3.00;;;;;;;;;;5011516;28;20288;-61
2023/05/01 00:20:14;;;;;;;7.47;3.37;;;;;;;;;;5011304;28;20251;-63
2023/05/01 00:22:40;;;;;;;4.90;3.07;;;;;;;;;;5011482;28;20620;-64
2023/05/01 00:25:06;;;;;;;5.27;3.53;;;;;;;;;;5011437;28;20295;-61
2023/05/01 00:27:34;;;;;;;5.50;3.00;;;;;;;;;;5011214;28;20567;-62
2023/05/01 00:30:00;;;;;;;4.40;2.90;;;;;;;;;;5011349;28;20194;-64
2023/05/01 00:32:26;;;;;;;5.17;3.00;;;;;;;;;;5011226;28;20607;-61
2023/05/01 00:34:53;;;;;;;4.47;3.10;;;;;;;;;;5011480;28;20280;-63
2023/05/01 00:37:19;;;;;;;5.37;3.07;;;;;;;;;;5011419;28;20196;-61
2023/05/01 00:39:45;;;;;;;4.53;3.33;;;;;;;;;;5011327;28;20201;-61
2023/05/01 00:42:11;;;;;;;5.27;3.27;;;;;;;;;;5011379;28;20695;-62
2023/05/01 00:44:38;;;;;;;6.57;3.10;;;;;;;;;;5011362;28;20210;-63
2023/05/01 00:47:04;;;;;;;3.20;2.90;;;;;;;;;;5013758;28;20236;-63
2023/05/01 00:49:30;;;;;;;7.17;3.50;;;;;;;;;;5014877;28;20564;-62
2023/05/01 00:51:57;;;;;;;5.13;3.57;;;;;;;;;;5014976;28;20208;-63
2023/05/01 00:54:24;;;;;;;4.27;3.20;;;;;;;;;;5014859;28;20236;-62
2023/05/01 00:56:50;;;;;;;4.33;3.00;;;;;;;;;;5015106;28;20236;-63
2023/05/01 00:59:17;;;;;;;4.17;3.10;;;;;;;;;;5014808;28;20201;-63
2023/05/01 01:01:44;;;;;;;5.73;3.37;;;;;;;;;;5014745;28;20404;-62
2023/05/01 01:04:10;;;;;;;3.57;2.90;;;;;;;;;;5014584;28;20664;-63
2023/05/01 01:06:42;;;;;;;5.20;3.43;;;;;;;;;;5014479;28;20233;-63
2023/05/01 01:09:16;;;;;;;4.67;3.00;;;;;;;;;;5014753;28;20208;-62
2023/05/01 01:11:46;;;;;;;4.03;3.23;;;;;;;;;;5014743;28;20696;-62
2023/05/01 01:14:15;;;;;;;5.67;3.50;;;;;;;;;;5014564;28;20244;-63
2023/05/01 01:16:47;;;;;;;5.10;3.17;;;;;;;;;;5014441;28;20205;-63
2023/05/01 01:19:24;;;;;;;4.93;3.40;;;;;;;;;;5014405;28;20225;-63
2023/05/01 01:21:54;;;;;;;4.33;3.20;;;;;;;;;;5014659;28;20202;-63
2023/05/01 01:24:26;;;;;;;5.07;3.27;;;;;;;;;;5014390;28;20194;-62
2023/05/01 01:27:08;;;;;;;4.77;3.40;;;;;;;;;;5014460;28;20227;-62
2023/05/01 01:29:43;;;;;;;5.00;3.53;;;;;;;;;;5014327;28;20202;-64
2023/05/01 01:32:14;;;;;;;4.43;3.20;;;;;;;;;;5014100;28;20601;-63
2023/05/01 01:34:44;;;;;;;5.77;3.43;;;;;;;;;;5014259;28;20189;-63
2023/05/01 01:37:11;;;;;;;3.67;3.20;;;;;;;;;;5014289;28;20229;-63
2023/05/01 01:39:40;;;;;;;4.43;3.00;;;;;;;;;;5014109;28;20212;-63
2023/05/01 01:42:08;;;;;;;3.60;3.10;;;;;;;;;;5014430;28;20219;-62
2023/05/01 01:44:37;;;;;;;7.40;3.83;;;;;;;;;;5014071;28;20201;-63
2023/05/01 01:47:05;;;;;;;6.13;3.53;;;;;;;;;;5014243;28;20213;-63
2023/05/01 01:49:32;;;;;;;3.97;3.43;;;;;;;;;;5013724;28;20206;-63
2023/05/01 01:52:01;;;;;;;4.15;3.50;;;;;;;;;;5012786;28;20415;-63
2023/05/01 01:54:29;;;;;;;5.45;3.63;;;;;;;;;;5012481;28;20733;-63
2023/05/01 01:56:57;;;;;;;4.10;3.37;;;;;;;;;;5012164;28;20445;-63
2023/05/01 01:59:25;;;;;;;5.90;3.70;;;;;;;;;;5011934;28;20799;-62
2023/05/01 02:01:53;;;;;;;4.43;3.13;;;;;;;;;;5013929;28;20205;-63
2023/05/01 02:04:19;;;;;;;5.80;3.60;;;;;;;;;;5013656;28;20221;-61
2023/05/01 02:06:46;;;;;;;5.93;3.50;;;;;;;;;;5013420;28;20241;-62
2023/05/01 02:09:16;;;;;;;4.97;3.27;;;;;;;;;;5013500;28;20198;-62
2023/05/01 02:11:42;;;;;;;5.93;3.67;;;;;;;;;;5013284;28;20214;-62
2023/05/01 02:14:09;;;;;;;4.80;3.23;;;;;;;;;;5013531;28;20198;-62
2023/05/01 02:16:36;;;;;;;4.50;3.50;;;;;;;;;;5013502;28;20289;-62
2023/05/01 02:19:03;;;;;;;3.53;3.00;;;;;;;;;;5013333;28;20209;-61
2023/05/01 02:21:30;;;;;;;6.20;3.40;;;;;;;;;;5013131;28;20193;-62
2023/05/01 02:23:56;;;;;;;5.37;3.37;;;;;;;;;;5013246;28;20228;-62
2023/05/01 02:26:25;;;;;;;4.50;3.37;;;;;;;;;;5013219;28;20230;-62
2023/05/01 02:28:51;;;;;;;4.90;3.50;;;;;;;;;;5013341;28;20197;-62
2023/05/01 02:31:17;;;;;;;4.77;3.10;;;;;;;;;;5013121;28;20293;-63
2023/05/01 02:33:43;;;;;;;5.83;3.80;;;;;;;;;;5012937;28;20284;-63
2023/05/01 02:36:12;;;;;;;4.80;3.97;;;;;;;;;;5013117;28;20699;-63
2023/05/01 02:38:38;;;;;;;4.70;3.20;;;;;;;;;;5013122;28;20271;-63
2023/05/01 02:41:04;;;;;;;5.77;3.50;;;;;;;;;;5013084;28;20668;-63
2023/05/01 02:43:32;;;;;;;5.63;3.90;;;;;;;;;;5011809;28;20942;-63
2023/05/01 02:45:59;;;;;;;5.35;3.95;;;;;;;;;;5011694;28;20413;-63
2023/05/01 02:48:26;;;;;;;4.80;3.80;;;;;;;;;;5011649;28;20397;-62
2023/05/01 02:50:53;;;;;;;5.93;3.80;;;;;;;;;;5011654;28;20416;-62
2023/05/01 02:53:19;;;;;;;4.47;3.92;;;;;;;;;;5011789;28;20459;-62
2023/05/01 02:55:45;;;;;;;5.28;4.20;;;;;;;;;;5011674;28;20973;-61
2023/05/01 02:58:15;;;;;;;6.20;4.22;;;;;;;;;;5011634;28;20493;-62
2023/05/01 03:00:43;;;;;;;6.07;4.25;;;;;;;;;;5011392;28;20815;-61
2023/05/01 03:03:09;;;;;;;5.57;3.70;;;;;;;;;;5011274;28;20496;-61
2023/05/01 03:05:36;;;;;;;4.07;3.63;;;;;;;;;;5011340;28;20488;-63
2023/05/01 03:08:03;;;;;;;4.60;3.53;;;;;;;;;;5012878;28;20225;-62
2023/05/01 03:10:29;;;;;;;4.63;4.03;;;;;;;;;;5012232;28;20205;-62
2023/05/01 03:12:55;;;;;;;5.03;3.63;;;;;;;;;;5012842;28;20200;-62
2023/05/01 03:15:21;;;;;;;5.73;3.33;;;;;;;;;;5012492;28;20585;-62
2023/05/01 03:17:48;;;;;;;5.20;3.80;;;;;;;;;;5012439;28;20201;-63
2023/05/01 03:20:14;;;;;;;4.40;3.90;;;;;;;;;;5011059;28;20428;-62
2023/05/01 03:22:41;;;;;;;6.40;4.07;;;;;;;;;;5010923;28;20405;-62
2023/05/01 03:25:08;;;;;;;6.53;4.55;;;;;;;;;;5011083;28;20410;-62
2023/05/01 03:27:34;;;;;;;6.93;4.60;;;;;;;;;;5010894;28;20424;-62
2023/05/01 03:30:00;;;;;;;6.28;4.18;;;;;;;;;;5010882;28;20417;-63
2023/05/01 03:32:28;;;;;;;4.93;4.20;;;;;;;;;;5010647;28;20426;-62
2023/05/01 03:34:55;;;;;;;5.37;3.90;;;;;;;;;;5012081;28;20209;-62
2023/05/01 03:37:21;;;;;;;6.50;4.17;;;;;;;;;;5012181;28;20211;-62
2023/05/01 03:39:47;;;;;;;5.63;3.90;;;;;;;;;;5011922;28;20296;-63
2023/05/01 03:42:13;;;;;;;4.63;3.53;;;;;;;;;;5012009;28;20279;-62
2023/05/01 03:44:39;;;;;;;9.13;4.30;;;;;;;;;;5011821;28;20313;-63
2023/05/01 03:47:05;;;;;;;6.22;4.18;;;;;;;;;;5010850;28;20423;-62
2023/05/01 03:49:31;;;;;;;6.00;4.20;;;;;;;;;;5010621;28;20401;-61
2023/05/01 03:51:58;;;;;;;5.63;4.50;;;;;;;;;;5010457;28;20496;-63
2023/05/01 03:54:24;;;;;;;5.57;4.23;;;;;;;;;;5010575;28;20491;-62
2023/05/01 03:56:50;;;;;;;5.25;4.20;;;;;;;;;;5010610;28;20416;-63
2023/05/01 03:59:17;;;;;;;4.50;4.10;;;;;;;;;;5010503;28;20437;-61
2023/05/01 04:01:43;;;;;;;5.80;4.60;;;;;;;;;;5010319;28;20405;-62
2023/05/01 04:04:09;;;;;;;5.38;4.50;;;;;;;;;;5010390;28;20427;-62
2023/05/01 04:06:35;;;;;;;5.45;4.68;;;;;;;;;;5010319;28;20911;-62
2023/05/01 04:09:03;;;;;;;5.47;4.30;;;;;;;;;;5010389;28;20401;-62
2023/05/01 04:11:29;;;;;;;5.97;4.47;;;;;;;;;;5010243;28;20409;-62
2023/05/01 04:13:55;;;;;;;5.60;4.30;;;;;;;;;;5010303;28;20416;-61
2023/05/01 04:16:21;;;;;;;5.07;4.32;;;;;;;;;;5010497;28;20408;-62
2023/05/01 04:18:47;;;;;;;6.30;4.43;;;;;;;;;;5010319;28;20507;-63
2023/05/01 04:21:16;;;;;;;4.70;4.00;;;;;;;;;;5011663;28;20447;-62
2023/05/01 04:23:42;;;;;;;4.60;4.10;;;;;;;;;;5014202;28;20404;-62
2023/05/01 04:26:09;;;;;;;4.80;4.10;;;;;;;;;;5014476;28;20424;-62
2023/05/01 04:28:35;;;;;;;5.63;4.60;;;;;;;;;;5017279;28;20419;-62
2023/05/01 04:31:01;;;;;;;6.13;4.30;;;;;;;;;;5034058;28;20414;-62
2023/05/01 04:33:27;;;;;;;7.35;4.50;;;;;;;;;;5033705;28;20792;-63
2023/05/01 04:35:53;;;;;;;6.28;4.60;;;;;;;;;;5033807;28;20460;-63
2023/05/01 04:38:19;;;;;;;5.18;4.40;;;;;;;;;;5034102;28;20407;-62
2023/05/01 04:40:45;;;;;;;6.88;4.43;;;;;;;;;;5033675;28;20405;-62
2023/05/01 04:43:13;;;;;;;5.25;4.50;;;;;;;;;;5033762;28;20452;-62
2023/05/01 04:45:39;;;;;;;5.15;4.15;;;;;;;;;;5033729;28;20403;-62
2023/05/01 04:48:05;;;;;;;6.00;4.20;;;;;;;;;;5033767;28;20430;-63
2023/05/01 04:50:31;;;;;;;6.25;4.60;;;;;;;;;;5033791;28;20414;-63
2023/05/01 04:52:58;;;;;;;5.65;4.40;;;;;;;;;;5033493;28;20780;-63
2023/05/01 04:55:24;;;;;;;6.97;4.20;;;;;;;;;;5033759;28;20402;-63
2023/05/01 04:57:50;;;;;;;6.03;4.47;;;;;;;;;;5033782;28;20464;-64
2023/05/01 05:00:18;;;;;;;4.93;4.00;;;;;;;;;;5033579;28;20493;-62
2023/05/01 05:02:45;;;;;;;7.32;4.50;;;;;;;;;;5033272;28;20413;-62
2023/05/01 05:05:11;;;;;;;5.38;4.60;;;;;;;;;;5033151;28;20457;-62
2023/05/01 05:07:37;;;;;;;5.85;4.53;;;;;;;;;;5033269;28;20418;-61
2023/05/01 05:10:04;;;;;;;5.35;4.35;;;;;;;;;;5033355;28;20815;-62
2023/05/01 05:12:30;;;;;;;6.03;4.55;;;;;;;;;;5033860;28;20434;-61
2023/05/01 05:14:56;;;;;;;6.72;4.50;;;;;;;;;;5033172;28;20825;-63
2023/05/01 05:17:23;;;;;;;5.77;4.47;;;;;;;;;;5033448;28;20410;-62
2023/05/01 05:19:49;;;;;;;5.97;4.60;;;;;;;;;;5033227;28;20923;-62
2023/05/01 05:22:15;;;;;;;7.30;4.63;;;;;;;;;;5033244;28;20486;-62
2023/05/01 05:24:42;;;;;;;6.57;4.70;;;;;;;;;;5032981;28;20419;-62
2023/05/01 05:27:08;;;;;;;7.15;5.00;;;;;;;;;;5032970;28;20468;-62
2023/05/01 05:29:34;;;;;;;6.85;4.80;;;;;;;;;;5033175;28;20399;-63
2023/05/01 05:32:00;;;;;;;5.65;4.40;;;;;;;;;;5032692;28;20493;-62
2023/05/01 05:34:27;;;;;;;7.20;4.90;;;;;;;;;;5032777;28;20403;-63
2023/05/01 05:36:53;;;;;;;8.93;5.22;;;;;;;;;;5032722;28;20892;-63
2023/05/01 05:39:22;;;;;;;6.03;4.90;;;;;;;;;;5032993;28;20399;-62
2023/05/01 05:41:48;;;;;;;5.93;4.47;;;;;;;;;;5032734;28;20395;-62
2023/05/01 05:44:14;;;;;;;6.55;4.63;;;;;;;;;;5032759;28;20399;-63
2023/05/01 05:46:40;;;;;;;6.47;4.78;;;;;;;;;;5032473;28;20426;-63
2023/05/01 05:49:06;;;;;;;7.43;4.45;;;;;;;;;;5032668;28;20391;-64
2023/05/01 05:51:34;;;;;;;7.47;4.80;;;;;;;;;;5032577;28;20802;-62
2023/05/01 05:54:00;;;;;;;6.72;4.25;;;;;;;;;;5032404;28;20418;-63
2023/05/01 05:56:26;;;;;;;5.70;4.30;;;;;;;;;;5032493;28;20494;-63
2023/05/01 05:58:52;;;;;;;7.60;4.38;;;;;;;;;;5032416;28;20551;-63
2023/05/01 06:01:18;;;;;;;5.60;4.43;;;;;;;;;;5032687;28;20449;-63
2023/05/01 06:03:44;;;;;;;5.93;4.10;;;;;;;;;;5032032;28;20833;-63
2023/05/01 06:06:10;;;;;;;5.68;4.20;;;;;;;;;;5032037;28;20497;-63
2023/05/01 06:08:38;;;;;;;5.30;3.90;;;;;;;;;;5032550;28;20738;-63
2023/05/01 06:11:05;;;;;;;7.35;4.25;;;;;;;;;;5032227;28;20502;-63
2023/05/01 06:13:31;;;;;;;6.30;4.25;;;;;;;;;;5032200;28;20391;-63
2023/05/01 06:15:57;;;;;;;5.60;3.78;;;;;;;;;;5032217;28;20417;-62
2023/05/01 06:18:23;;;;;;;4.25;3.53;;;;;;;;;;5032003;28;20409;-64
2023/05/01 06:20:51;;;;;;;4.85;3.53;;;;;;;;;;5032092;28;20823;-64
2023/05/01 06:23:17;;;;;;;5.78;3.88;;;;;;;;;;5031903;28;20920;-63
2023/05/01 06:25:45;;;;;;;6.93;4.00;;;;;;;;;;5031757;28;20793;-63
2023/05/01 06:28:11;;;;;;;5.45;3.58;;;;;;;;;;5013925;28;20453;-63
2023/05/01 06:30:37;;;;;;;6.47;4.10;;;;;;;;;;5031986;28;20403;-64
2023/05/01 06:33:03;;;;;;;6.25;3.63;;;;;;;;;;5031673;28;20916;-64
2023/05/01 06:35:29;;;;;;;5.45;3.75;;;;;;;;;;5031644;28;20473;-63
2023/05/01 06:37:55;;;;;;;5.15;3.70;;;;;;;;;;5031483;28;20483;-63
2023/05/01 06:40:21;;;;;;;6.67;4.13;;;;;;;;;;5031780;28;20410;-62
2023/05/01 06:42:48;;;;;;;6.55;4.20;;;;;;;;;;5031494;28;20411;-62
2023/05/01 06:45:15;;;;;;;5.70;4.03;;;;;;;;;;5030937;28;20414;-63
2023/05/01 06:47:41;;;;;;;5.43;3.70;;;;;;;;;;5031306;28;20510;-63
2023/05/01 06:50:07;;;;;;;7.00;3.55;;;;;;;;;;5031451;28;20430;-63
2023/05/01 06:52:33;;;;;;;5.70;3.60;;;;;;;;;;5031609;28;20403;-63
2023/05/01 06:55:00;;;;;;;5.15;3.33;;;;;;;;;;5031357;28;20399;-63
2023/05/01 06:57:26;;;;;;;6.05;3.60;;;;;;;;;;5031392;28;20618;-63
2023/05/01 06:59:53;;;;;;;4.82;3.53;;;;;;;;;;5031306;28;20399;-63
2023/05/01 07:02:19;;;;;;;6.07;3.70;;;;;;;;;;5031337;28;20504;-62
2023/05/01 07:04:45;;;;;;;6.45;3.88;;;;;;;;;;5031080;28;20399;-63
2023/05/01 07:07:11;;;;;;;5.28;3.67;;;;;;;;;;5030880;28;20503;-62
2023/05/01 07:09:37;;;;;;;6.43;3.63;;;;;;;;;;5031146;28;20407;-63
2023/05/01 07:12:04;;;;;;;6.28;3.85;;;;;;;;;;5030877;28;20435;-61
2023/05/01 07:14:30;;;;;;;5.22;3.60;;;;;;;;;;5030967;28;20406;-61
2023/05/01 07:16:57;;;;;;;8.27;3.43;;;;;;;;;;5030569;28;20958;-61
2023/05/01 07:19:24;;;;;;;5.25;3.50;;;;;;;;;;5030961;28;20502;-62
2023/05/01 07:21:49;;;;;;;7.38;3.97;;;;;;;;;;5031128;28;20742;-62
2023/05/01 07:24:16;;;;;;;4.93;3.57;;;;;;;;;;5030982;28;20395;-62
2023/05/01 07:26:42;;;;;;;5.60;3.72;;;;;;;;;;5030920;28;20492;-62
2023/05/01 07:29:08;;;;;;;5.72;3.85;;;;;;;;;;5030636;28;20431;-62
2023/05/01 07:31:34;;;;;;;6.75;3.97;;;;;;;;;;5030902;28;20414;-62
2023/05/01 07:34:01;;;;;;;7.13;3.80;;;;;;;;;;5030537;28;20817;-62
2023/05/01 07:36:28;;;;;;;6.15;4.00;;;;;;;;;;5030729;28;20502;-62
2023/05/01 07:38:55;;;;;;;5.75;3.78;;;;;;;;;;5030487;28;20422;-63
2023/05/01 07:41:21;;;;;;;6.70;4.05;;;;;;;;;;5030776;28;20546;-62
2023/05/01 07:43:47;;;;;;;5.90;4.07;;;;;;;;;;5030438;28;20402;-61
2023/05/01 07:46:14;;;;;;;7.07;4.20;;;;;;;;;;5030464;28;20494;-62
2023/05/01 07:48:40;;;;;;;8.52;4.13;;;;;;;;;;5030350;28;20419;-63
2023/05/01 07:51:07;;;;;;;6.18;3.80;;;;;;;;;;5030423;28;20407;-62
2023/05/01 07:53:33;;;;;;;7.10;3.80;;;;;;;;;;5030488;28;20403;-62
2023/05/01 07:56:06;;;;;;;6.15;3.65;;;;;;;;;;5029601;28;20969;-62
2023/05/01 07:58:32;;;;;;;7.45;3.88;;;;;;;;;;5030420;28;20398;-61
2023/05/01 08:00:58;;;;;;;6.80;3.97;;;;;;;;;;5030159;28;20399;-62
2023/05/01 08:03:24;;;;;;;6.95;3.65;;;;;;;;;;5030147;28;20487;-63
2023/05/01 08:05:50;;;;;;;6.07;3.88;;;;;;;;;;5030207;28;20590;-62
2023/05/01 08:08:20;;;;;;;6.47;3.90;;;;;;;;;;5030262;28;20419;-62
2023/05/01 08:10:46;;;;;;;5.20;3.45;;;;;;;;;;5030245;28;20403;-63
2023/05/01 08:13:12;;;;;;;6.60;3.65;;;;;;;;;;5029974;28;20403;-62
2023/05/01 08:15:38;;;;;;;5.95;3.75;;;;;;;;;;5030059;28;20944;-62
2023/05/01 08:18:04;;;;;;;8.15;3.80;;;;;;;;;;5030051;28;20387;-62
2023/05/01 08:20:30;;;;;;;5.20;3.92;;;;;;;;;;5030081;28;20402;-62
2023/05/01 08:22:56;;;;;;;7.55;3.85;;;;;;;;;;5030082;28;20891;-62
2023/05/01 08:25:23;;;;;;;5.78;3.67;;;;;;;;;;5030125;28;20395;-65
2023/05/01 08:27:49;;;;;;;5.90;3.80;;;;;;;;;;5030115;28;20430;-66
2023/05/01 08:30:15;;;;;;;5.70;3.87;;;;;;;;;;5029864;28;20959;-62
2023/05/01 08:32:41;;;;;;;6.45;3.60;;;;;;;;;;5029869;28;20497;-64
2023/05/01 08:35:07;;;;;;;7.68;3.83;;;;;;;;;;5029890;28;20506;-64
2023/05/01 08:37:34;;;;;;;5.47;3.88;;;;;;;;;;5029914;28;20407;-64
2023/05/01 08:40:03;;;;;;;4.28;3.47;;;;;;;;;;5029831;28;20407;-63
2023/05/01 08:42:30;;;;;;;6.18;3.60;;;;;;;;;;5029919;28;20387;-64
2023/05/01 08:44:58;;;;;;;4.85;3.47;;;;;;;;;;5029747;28;20678;-62
2023/05/01 08:47:24;;;;;;;5.85;3.38;;;;;;;;;;5029820;28;20415;-60
2023/05/01 08:49:51;;;;;;;3.47;2.77;;;;;;;;;;5031156;28;20249;-62
2023/05/01 08:52:18;;;;;;;4.23;3.23;;;;;;;;;;5030967;28;20198;-58
2023/05/01 08:54:46;;;;;;;4.43;3.10;;;;;;;;;;5031054;28;20252;-59
2023/05/01 08:57:12;;;;;;;4.43;2.90;;;;;;;;;;5030860;28;20221;-59
2023/05/01 08:59:40;;;;;;;4.17;2.87;;;;;;;;;;5031091;28;20568;-60
2023/05/01 09:02:07;;;;;;;6.13;3.00;;;;;;;;;;5030896;28;20769;-60
2023/05/01 09:04:34;;;;;;;4.23;2.83;;;;;;;;;;5031171;28;20213;-59
2023/05/01 09:07:01;;;;;;;4.53;2.80;;;;;;;;;;5031747;28;20260;-60
2023/05/01 09:09:27;;;;;;;4.43;3.07;;;;;;;;;;5035033;28;20277;-60
2023/05/01 09:11:54;;;;;;;4.17;2.70;;;;;;;;;;5035153;28;20248;-59
2023/05/01 09:14:20;;;;;;;7.37;3.03;;;;;;;;;;5034882;28;20205;-60
2023/05/01 09:16:48;;;;;;;4.47;3.17;;;;;;;;;;5034556;28;20197;-59
2023/05/01 09:19:14;;;;;;;4.70;3.10;;;;;;;;;;5034614;28;21064;-59
2023/05/01 09:21:40;;;;;;;4.80;2.77;;;;;;;;;;5034623;28;20211;-59
2023/05/01 09:24:07;;;;;;;6.73;2.90;;;;;;;;;;5034577;28;20195;-59
2023/05/01 09:26:35;;;;;;;3.90;2.70;;;;;;;;;;5034727;28;20211;-59
2023/05/01 09:29:01;;;;;;;4.77;2.80;;;;;;;;;;5034371;28;20539;-59
2023/05/01 09:31:28;;;;;;;4.23;2.70;;;;;;;;;;5034362;28;20212;-60
2023/05/01 09:33:57;;;;;;;3.27;2.67;;;;;;;;;;5034394;28;20199;-60
2023/05/01 09:36:24;;;;;;;3.57;2.67;;;;;;;;;;5034519;28;20207;-60
2023/05/01 09:38:50;;;;;;;5.13;2.53;;;;;;;;;;5034573;28;20219;-61
2023/05/01 09:41:19;;;;;;;5.80;2.67;;;;;;;;;;5034299;28;20211;-59
2023/05/01 09:43:48;;;;;;;5.23;2.40;;;;;;;;;;5034149;28;20606;-59
2023/05/01 09:46:15;;;;;;;4.73;2.93;;;;;;;;;;5034070;28;20201;-60
2023/05/01 09:48:41;;;;;;;6.33;2.93;;;;;;;;;;5016202;28;20234;-60
2023/05/01 09:51:28;;;;;;;5.83;3.30;;;;;;;;;;5034047;28;20245;-59
2023/05/01 09:53:55;;;;;;;3.83;2.77;;;;;;;;;;5032483;28;20212;-59
2023/05/01 09:56:21;;;;;;;4.40;3.03;;;;;;;;;;5026765;28;20268;-59
2023/05/01 09:58:47;;;;;;;5.50;3.40;;;;;;;;;;5026726;28;20531;-59
2023/05/01 10:01:14;;;;;;;5.13;2.13;;;;;;;;;;5033790;28;20556;-59
2023/05/01 10:03:40;;;;;;;3.87;2.43;;;;;;;;;;5033701;28;20225;-60
2023/05/01 10:06:06;;;;;;;3.77;2.40;;;;;;;;;;5033638;28;20277;-60
2023/05/01 10:08:47;;;;;;;3.27;2.30;;;;;;;;;;5033866;28;20261;-59
2023/05/01 10:11:13;;;;;;;6.27;2.50;;;;;;;;;;5033478;28;20205;-59
2023/05/01 10:13:39;;;;;;;5.43;2.60;;;;;;;;;;5033556;28;20193;-60
2023/05/01 10:16:09;;;;;;;4.57;2.97;;;;;;;;;;5033451;28;20194;-60
2023/05/01 10:18:36;;;;;;;4.43;2.43;;;;;;;;;;5032701;28;20202;-59
2023/05/01 10:21:03;;;;;;;7.63;2.70;;;;;;;;;;5033584;28;20213;-57
2023/05/01 10:23:29;;;;;;;6.77;2.43;;;;;;;;;;5033333;28;20205;-54
2023/05/01 10:25:57;;;;;;;4.33;2.57;;;;;;;;;;5033467;28;20216;-57
2023/05/01 10:28:24;;;;;;;6.50;2.70;;;;;;;;;;5033208;28;20232;-67
2023/05/01 10:30:50;;;;;;;3.60;2.40;;;;;;;;;;5033310;28;20567;-57
2023/05/01 10:33:16;;;;;;;4.47;2.33;;;;;;;;;;5032995;28;20276;-57
2023/05/01 10:35:45;;;;;;;7.27;4.37;;;;;;;;;;5033249;28;20663;-57
2023/05/01 10:38:13;;;;;;;3.33;2.23;;;;;;;;;;5033135;28;20571;-57
2023/05/01 10:40:49;;;;;;;5.53;2.57;;;;;;;;;;5033300;28;20200;-56
2023/05/01 10:43:17;;;;;;;2.67;1.90;;;;;;;;;;5032892;28;20663;-57
2023/05/01 10:45:43;;;;;;;3.77;2.60;;;;;;;;;;5033061;28;20196;-59
2023/05/01 10:48:09;;;;;;;3.40;2.20;;;;;;;;;;5032764;28;20753;-60
2023/05/01 10:50:36;;;;;;;3.63;2.20;;;;;;;;;;5033003;28;20543;-58
2023/05/01 10:53:16;;;;;;;5.60;2.20;;;;;;;;;;5032959;28;20277;-58
2023/05/01 10:55:43;;;;;;;3.00;1.80;;;;;;;;;;5032870;28;20223;-60
2023/05/01 10:58:09;;;;;;;2.93;1.77;;;;;;;;;;5032673;28;20197;-59
2023/05/01 11:00:37;;;;;;;3.63;1.70;;;;;;;;;;5033075;28;20199;-59
2023/05/01 11:03:24;;;;;;;2.50;1.77;;;;;;;;;;5032653;28;20730;-57
2023/05/01 11:06:05;;;;;;;2.83;2.00;;;;;;;;;;5031828;28;20245;-58
2023/05/01 11:08:32;;;;;;;2.63;1.60;;;;;;;;;;5032385;28;20242;-57
2023/05/01 11:10:58;;;;;;;2.53;1.77;;;;;;;;;;5032729;28;20555;-59
2023/05/01 11:13:39;;;;;;;3.30;2.00;;;;;;;;;;5032382;28;20689;-57
2023/05/01 11:16:20;;;;;;;2.17;1.40;;;;;;;;;;5031793;28;20204;-57
2023/05/01 11:18:47;;;;;;;3.03;1.57;;;;;;;;;;5031519;28;20195;-57
2023/05/01 11:21:14;;;;;;;1.80;1.43;;;;;;;;;;5032441;28;20621;-60
2023/05/01 11:23:46;;;;;;;1.73;1.37;;;;;;;;;;5032290;28;20569;-60
2023/05/01 11:26:12;;;;;;;1.70;1.40;;;;;;;;;;5032195;28;20197;-60
2023/05/01 11:28:38;;;;;;;2.37;1.17;;;;;;;;;;5032094;28;20538;-59
2023/05/01 11:31:04;;;;;;;2.23;1.33;;;;;;;;;;5032066;28;20197;-61
2023/05/01 11:33:30;;;;;;;2.63;1.10;;;;;;;;;;5031961;28;20189;-60
2023/05/01 11:36:01;;;;;;;2.33;1.20;;;;;;;;;;5031915;28;20690;-60
2023/05/01 11:38:28;;;;;;;2.27;1.33;;;;;;;;;;5032179;28;20304;-60
2023/05/01 11:40:54;;;;;;;1.67;1.00;;;;;;;;;;5032092;28;20202;-60
2023/05/01 11:43:20;;;;;;;1.40;1.00;;;;;;;;;;5032190;28;20197;-61
2023/05/01 11:45:51;;;;;;;2.87;1.00;;;;;;;;;;5031868;28;20296;-61
2023/05/01 11:48:17;;;;;;;0.77;0.73;;;;;;;;;;5031809;28;20229;-61
2023/05/01 11:50:43;;;;;;;1.07;0.70;;;;;;;;;;5031909;28;20730;-61
2023/05/01 11:53:13;;;;;;;1.10;1.00;;;;;;;;;;5031748;28;20203;-61
2023/05/01 11:55:39;;;;;;;0.77;0.77;;;;;;;;;;5031758;28;20206;-61
2023/05/01 11:58:05;;;;;;;0.83;0.80;;;;;;;;;;5031947;28;20197;-61
2023/05/01 12:00:32;;;;;;;1.17;0.80;;;;;;;;;;5031468;28;20836;-61
2023/05/01 12:02:59;;;;;;;0.93;0.70;;;;;;;;;;5031628;28;20300;-59
2023/05/01 12:05:25;;;;;;;0.27;0.27;;;;;;;;;;5031450;28;20380;-61
2023/05/01 12:07:51;;;;;;;2.00;1.00;;;;;;;;;;5031770;28;20705;-60
2023/05/01 12:10:19;;;;;;;0.70;0.70;;;;;;;;;;5031712;28;20200;-60
2023/05/01 12:12:45;;;;;;;0.40;0.40;;;;;;;;;;5031708;28;20196;-60
2023/05/01 12:15:11;;;;;;;0.77;0.70;;;;;;;;;;5031563;28;20299;-61
2023/05/01 12:17:37;;;;;;;1.10;1.00;;;;;;;;;;5031503;28;20205;-60
2023/05/01 12:20:04;;;;;;;4.13;0.97;;;;;;;;;;5031814;28;20205;-60
2023/05/01 12:22:30;;;;;;;1.63;1.30;;;;;;;;;;5031657;28;20211;-59
2023/05/01 12:24:56;;;;;;;1.97;0.93;;;;;;;;;;5031484;28;20193;-61
2023/05/01 12:27:24;;;;;;;0.70;0.70;;;;;;;;;;5031531;28;20217;-60
2023/05/01 12:29:50;;;;;;;1.43;1.33;;;;;;;;;;5031511;28;20202;-60
2023/05/01 12:32:16;;;;;;;1.87;1.40;;;;;;;;;;5031368;28;20262;-60
2023/05/01 12:34:42;;;;;;;4.20;1.20;;;;;;;;;;5031232;28;20192;-60
2023/05/01 12:37:09;;;;;;;1.50;1.10;;;;;;;;;;5031374;28;20232;-61
2023/05/01 12:39:38;;;;;;;3.83;1.10;;;;;;;;;;5031311;28;20193;-60
2023/05/01 12:42:11;;;;;;;1.60;1.30;;;;;;;;;;5032402;28;20231;-61
2023/05/01 12:44:38;;;;;;;1.93;1.03;;;;;;;;;;5035465;28;20209;-61
2023/05/01 12:47:06;;;;;;;1.70;1.10;;;;;;;;;;5035381;28;20194;-61
2023/05/01 12:49:32;;;;;;;2.27;1.10;;;;;;;;;;5035202;28;20211;-61
2023/05/01 12:51:59;;;;;;;1.97;1.10;;;;;;;;;;5035233;28;20203;-61
2023/05/01 12:54:27;;;;;;;1.40;1.10;;;;;;;;;;5035051;28;20572;-61
2023/05/01 12:56:53;;;;;;;1.83;1.00;;;;;;;;;;5035078;28;20201;-61
2023/05/01 12:59:20;;;;;;;1.53;0.90;;;;;;;;;;5035033;28;20201;-60
2023/05/01 13:01:48;;;;;;;1.20;1.00;;;;;;;;;;5034920;28;20196;-60
2023/05/01 13:04:20;;;;;;;2.30;1.07;;;;;;;;;;5034820;28;20220;-60
2023/05/01 13:06:46;;;;;;;1.67;0.90;;;;;;;;;;5034815;28;20254;-60
2023/05/01 13:09:14;;;;;;;1.57;1.10;;;;;;;;;;5034873;28;20223;-60
2023/05/01 13:11:40;;;;;;;3.83;1.30;;;;;;;;;;5034771;28;20196;-60
2023/05/01 13:14:10;;;;;;;1.83;1.20;;;;;;;;;;5024980;28;20241;-60
2023/05/01 13:16:44;;;;;;;1.37;1.27;;;;;;;;;;5028922;28;20660;-60
2023/05/01 13:19:12;;;;;;;1.30;1.10;;;;;;;;;;5034780;28;20224;-60
2023/05/01 13:21:46;;;;;;;1.67;1.23;;;;;;;;;;5034552;28;20210;-60
2023/05/01 13:24:13;;;;;;;1.93;1.50;;;;;;;;;;5034605;28;20216;-60
2023/05/01 13:26:39;;;;;;;1.53;1.30;;;;;;;;;;5032329;28;20196;-60
2023/05/01 13:29:05;;;;;;;1.57;1.20;;;;;;;;;;5034022;28;20311;-60
2023/05/01 13:31:31;;;;;;;3.93;1.40;;;;;;;;;;5033767;28;20238;-61
2023/05/01 13:33:57;;;;;;;2.60;1.30;;;;;;;;;;5033943;28;20193;-60
2023/05/01 13:36:26;;;;;;;2.43;1.37;;;;;;;;;;5033809;28;20287;-60
2023/05/01 13:38:54;;;;;;;4.33;1.70;;;;;;;;;;5033803;28;20225;-60
2023/05/01 13:41:21;;;;;;;2.57;1.40;;;;;;;;;;5033882;28;20247;-60
2023/05/01 13:43:47;;;;;;;1.57;1.30;;;;;;;;;;5033835;28;20197;-60
2023/05/01 13:46:14;;;;;;;2.97;1.50;;;;;;;;;;5033530;28;20204;-61
2023/05/01 13:48:41;;;;;;;2.03;1.40;;;;;;;;;;5033439;28;20267;-61
2023/05/01 13:51:07;;;;;;;3.93;1.50;;;;;;;;;;5033666;28;20204;-60
2023/05/01 13:53:35;;;;;;;2.07;1.50;;;;;;;;;;5033389;28;20665;-61
2023/05/01 13:56:01;;;;;;;2.10;1.30;;;;;;;;;;5033444;28;20621;-61
2023/05/01 13:58:28;;;;;;;2.53;1.33;;;;;;;;;;5033327;28;20273;-61
2023/05/01 14:00:54;;;;;;;5.87;1.70;;;;;;;;;;5033449;28;20252;-61
2023/05/01 14:03:20;;;;;;;2.40;1.67;;;;;;;;;;5033413;28;20217;-61
2023/05/01 14:05:47;;;;;;;2.10;1.50;;;;;;;;;;5033017;28;20658;-61
2023/05/01 14:08:14;;;;;;;1.47;1.20;;;;;;;;;;5033181;28;20475;-61
2023/05/01 14:10:41;;;;;;;2.47;1.53;;;;;;;;;;5033126;28;20240;-60
2023/05/01 14:13:07;;;;;;;3.67;1.87;;;;;;;;;;5033337;28;20224;-60
2023/05/01 14:15:33;;;;;;;3.33;1.60;;;;;;;;;;5033070;28;20212;-61
2023/05/01 14:18:04;;;;;;;2.10;1.40;;;;;;;;;;5033198;28;20328;-61
2023/05/01 14:20:30;;;;;;;3.37;1.60;;;;;;;;;;5033002;28;20201;-61
2023/05/01 14:22:57;;;;;;;1.80;1.43;;;;;;;;;;5032992;28;20213;-60
2023/05/01 14:25:24;;;;;;;2.10;1.50;;;;;;;;;;5032957;28;20227;-60
2023/05/01 14:27:52;;;;;;;3.00;1.30;;;;;;;;;;5033090;28;20228;-61
2023/05/01 14:30:21;;;;;;;2.50;1.50;;;;;;;;;;5032768;28;20247;-59
2023/05/01 14:32:47;;;;;;;1.83;1.40;;;;;;;;;;5032855;28;20260;-60
2023/05/01 14:35:15;;;;;;;1.40;1.30;;;;;;;;;;5032750;28;20600;-61
2023/05/01 14:37:41;;;;;;;2.00;1.57;;;;;;;;;;5032601;28;20251;-60
2023/05/01 14:40:11;;;;;;;2.03;1.47;;;;;;;;;;5032628;28;20201;-60
2023/05/01 14:42:41;;;;;;;2.77;1.13;;;;;;;;;;5032542;28;20208;-60